createdAt,value
2022-10-14T00:04:30.256Z,22.50
2022-10-14T00:09:33.700Z,21.20
2022-10-14T00:14:37.964Z,22.60
2022-10-14T00:19:42.765Z,23.90
2022-10-14T00:24:46.181Z,23.40
2022-10-14T00:29:50.166Z,22.00
2022-10-14T00:34:55.316Z,22.30
2022-10-14T00:40:00.139Z,23.20
2022-10-14T00:45:15.096Z,24.80
2022-10-14T00:50:21.689Z,24.30
2022-10-14T00:55:27.054Z,21.80
2022-10-14T01:00:30.674Z,22.20
2022-10-14T01:05:44.117Z,22.90
2022-10-14T01:10:54.061Z,23.60
2022-10-14T01:16:09.730Z,22.60
2022-10-14T01:21:29.617Z,22.60
2022-10-14T01:27:06.097Z,19.20
2022-10-14T01:32:17.910Z,20.80
2022-10-14T01:37:27.108Z,20.40
2022-10-14T01:42:35.844Z,20.40
2022-10-14T01:47:41.799Z,19.00
2022-10-14T01:52:54.366Z,19.60
2022-10-14T01:58:00.577Z,19.80
2022-10-14T02:03:04.848Z,19.90
2022-10-14T02:08:26.725Z,20.40
2022-10-14T02:13:45.386Z,21.90
2022-10-14T02:19:10.028Z,24.50
2022-10-14T02:24:25.680Z,22.60
2022-10-14T02:29:31.327Z,23.70
2022-10-14T02:34:37.725Z,21.70
2022-10-14T02:39:48.138Z,22.20
2022-10-14T02:44:59.802Z,21.40
2022-10-14T02:50:04.648Z,23.60
2022-10-14T02:55:09.625Z,20.50
2022-10-14T03:00:18.268Z,22.20
2022-10-14T03:05:21.798Z,23.70
2022-10-14T03:10:25.475Z,22.80
2022-10-14T03:15:29.629Z,16.70
2022-10-14T03:20:32.889Z,22.60
2022-10-14T03:25:37.049Z,23.60
2022-10-14T03:30:41.629Z,22.50
2022-10-14T03:35:45.452Z,22.60
2022-10-14T03:40:48.952Z,24.60
2022-10-14T03:45:52.592Z,24.50
2022-10-14T03:50:56.687Z,25.50
2022-10-14T03:56:00.057Z,22.50
2022-10-14T04:01:04.130Z,22.90
2022-10-14T04:06:07.324Z,27.20
2022-10-14T04:11:10.875Z,23.80
2022-10-14T04:16:14.623Z,22.80
2022-10-14T04:21:18.541Z,23.50
2022-10-14T04:26:22.044Z,22.80
2022-10-14T04:31:25.926Z,23.90
2022-10-14T04:36:29.892Z,25.00
2022-10-14T04:41:33.787Z,21.80
2022-10-14T04:46:37.787Z,24.60
2022-10-14T04:51:41.495Z,24.90
2022-10-14T04:56:45.657Z,28.10
2022-10-14T05:01:49.848Z,24.90
2022-10-14T05:06:54.021Z,26.10
2022-10-14T05:11:59.172Z,25.90
2022-10-14T05:17:03.813Z,24.50
2022-10-14T05:22:08.047Z,26.50
2022-10-14T05:27:12.418Z,25.60
2022-10-14T05:32:17.492Z,19.10
2022-10-14T05:37:21.495Z,23.40
2022-10-14T05:42:26.101Z,30.00
2022-10-14T05:47:30.233Z,22.00
2022-10-14T05:52:35.544Z,27.90
2022-10-14T05:57:39.968Z,27.10
2022-10-14T06:02:43.261Z,28.40
2022-10-14T06:07:47.892Z,30.00
2022-10-14T06:12:51.995Z,32.00
2022-10-14T06:17:56.463Z,30.30
2022-10-14T06:23:00.475Z,28.30
2022-10-14T06:28:06.268Z,27.70
2022-10-14T06:33:09.866Z,25.60
2022-10-14T06:38:14.111Z,29.00
2022-10-14T06:43:18.465Z,27.80
2022-10-14T06:48:23.518Z,31.30
2022-10-14T06:53:28.591Z,29.30
2022-10-14T06:58:33.505Z,28.10
2022-10-14T07:03:40.453Z,27.20
2022-10-14T07:08:44.700Z,24.50
2022-10-14T07:13:49.160Z,24.60
2022-10-14T07:18:53.619Z,25.70
2022-10-14T07:23:57.731Z,26.80
2022-10-14T07:29:04.949Z,26.10
2022-10-14T07:39:12.232Z,25.80
2022-10-14T07:44:17.665Z,26.00
2022-10-14T07:49:23.754Z,25.80
2022-10-14T07:54:30.564Z,26.20
2022-10-14T07:59:34.700Z,28.90
2022-10-14T08:04:38.876Z,28.60
2022-10-14T08:09:44.196Z,26.90
2022-10-14T08:14:48.387Z,28.90
2022-10-14T08:19:51.667Z,26.90
2022-10-14T08:24:55.226Z,28.00
2022-10-14T08:29:59.153Z,29.40
2022-10-14T08:35:02.382Z,29.20
2022-10-14T08:40:06.707Z,25.80
2022-10-14T08:45:19.352Z,28.70
2022-10-14T08:50:25.638Z,28.00
2022-10-14T08:55:56.968Z,29.50
2022-10-14T09:01:23.989Z,26.90
2022-10-14T09:06:34.333Z,24.50
2022-10-14T09:11:43.617Z,30.20
2022-10-14T09:16:53.465Z,28.80
2022-10-14T09:22:01.954Z,22.00
2022-10-14T09:27:12.215Z,25.60
2022-10-14T09:32:28.375Z,24.80
2022-10-14T09:37:36.947Z,24.90
2022-10-14T09:42:59.091Z,24.70
2022-10-14T09:48:09.240Z,19.00
2022-10-14T09:53:33.848Z,22.70
2022-10-14T09:58:48.740Z,28.80
2022-10-14T10:03:54.263Z,27.30
2022-10-14T10:09:01.008Z,26.20
2022-10-14T10:14:31.132Z,26.20
2022-10-14T10:19:39.947Z,28.10
2022-10-14T10:24:48.344Z,28.10
2022-10-14T10:29:52.626Z,25.20
2022-10-14T10:35:27.789Z,20.10
2022-10-14T10:40:52.209Z,23.10
2022-10-14T10:46:29.094Z,22.70
2022-10-14T10:51:36.289Z,23.30
2022-10-14T10:56:53.821Z,20.30
2022-10-14T11:02:38.558Z,19.50
2022-10-14T11:08:16.357Z,19.40
2022-10-14T11:13:48.840Z,17.30
2022-10-14T11:19:19.424Z,20.80
2022-10-14T11:24:42.428Z,16.40
2022-10-14T11:30:19.564Z,20.10
2022-10-14T11:35:55.097Z,21.70
2022-10-14T11:41:05.364Z,20.40
2022-10-14T11:46:17.491Z,21.80
2022-10-14T11:51:53.997Z,25.50
2022-10-14T11:57:09.451Z,25.90
2022-10-14T12:02:29.266Z,24.60
2022-10-14T12:07:40.423Z,23.60
2022-10-14T12:12:45.660Z,25.20
2022-10-14T12:18:08.939Z,24.30
2022-10-14T12:23:49.064Z,22.50
2022-10-14T12:28:54.961Z,23.40
2022-10-14T12:34:30.928Z,24.00
2022-10-14T12:39:42.842Z,20.80
2022-10-14T12:44:57.827Z,19.50
2022-10-14T12:50:05.835Z,21.40
2022-10-14T12:55:18.385Z,20.50
2022-10-14T13:00:22.802Z,20.90
2022-10-14T13:05:42.335Z,16.50
2022-10-14T13:10:47.469Z,12.60
2022-10-14T13:15:52.121Z,15.30
2022-10-14T13:20:55.681Z,16.40
2022-10-14T13:26:07.406Z,17.10
2022-10-14T13:31:22.930Z,16.60
2022-10-14T13:36:43.589Z,15.70
2022-10-14T13:41:48.856Z,16.30
2022-10-14T13:46:54.099Z,16.20
2022-10-14T13:52:03.314Z,15.00
2022-10-14T14:02:42.763Z,13.70
2022-10-14T14:13:15.177Z,14.30
2022-10-14T14:18:55.808Z,13.60
2022-10-14T14:24:16.631Z,13.70
2022-10-14T14:29:23.110Z,14.10
2022-10-14T14:39:31.190Z,14.10
2022-10-14T14:44:36.418Z,13.90
2022-10-14T14:49:43.560Z,17.20
2022-10-14T14:54:48.444Z,18.10
2022-10-14T15:00:08.106Z,15.90
2022-10-14T15:05:13.719Z,14.70
2022-10-14T15:10:28.991Z,13.60
2022-10-14T15:15:34.841Z,13.60
2022-10-14T15:20:38.667Z,13.50
2022-10-14T15:25:43.317Z,14.60
2022-10-14T15:30:59.061Z,24.60
2022-10-14T15:36:06.459Z,14.80
2022-10-14T15:41:11.270Z,13.70
2022-10-14T15:46:34.268Z,13.30
2022-10-14T15:51:38.435Z,13.50
2022-10-14T15:56:42.707Z,13.80
2022-10-14T16:01:47.676Z,15.90
2022-10-14T16:06:55.985Z,18.20
2022-10-14T16:12:00.682Z,19.80
2022-10-14T16:17:06.308Z,28.60
2022-10-14T16:22:10.878Z,18.70
2022-10-14T16:27:15.810Z,15.10
2022-10-14T16:32:20.390Z,13.50
2022-10-14T16:37:27.962Z,14.30
2022-10-14T16:42:32.225Z,13.60
2022-10-14T16:47:39.183Z,14.40
2022-10-14T16:53:06.248Z,20.20
2022-10-14T16:58:13.892Z,21.10
2022-10-14T17:03:19.132Z,24.20
2022-10-14T17:08:24.038Z,24.70
2022-10-14T17:13:28.682Z,21.70
2022-10-14T17:18:35.467Z,30.70
2022-10-14T17:23:42.700Z,30.10
2022-10-14T17:28:48.882Z,30.10
2022-10-14T17:33:53.814Z,27.40
2022-10-14T17:38:58.641Z,29.30
2022-10-14T17:44:03.283Z,28.50
2022-10-14T17:49:10.376Z,25.10
2022-10-14T17:54:14.078Z,26.20
2022-10-14T17:59:17.903Z,28.60
2022-10-14T18:04:22.142Z,34.20
2022-10-14T18:09:26.968Z,36.90
2022-10-14T18:14:30.918Z,34.30
2022-10-14T18:19:34.363Z,38.10
2022-10-14T18:24:40.648Z,35.80
2022-10-14T18:29:45.293Z,33.80
2022-10-14T18:34:49.299Z,30.70
2022-10-14T18:39:53.144Z,31.60
2022-10-14T18:44:56.837Z,33.80
2022-10-14T18:55:07.995Z,35.10
2022-10-14T19:00:17.057Z,33.60
2022-10-14T19:05:23.214Z,36.90
2022-10-14T19:10:30.661Z,32.70
2022-10-14T19:15:46.867Z,36.60
2022-10-14T19:20:57.946Z,42.50
2022-10-14T19:31:34.306Z,43.90
2022-10-14T19:36:41.787Z,42.90
2022-10-14T19:41:47.896Z,40.20
2022-10-14T19:46:52.853Z,40.80
2022-10-14T19:51:56.419Z,38.60
2022-10-14T19:57:01.273Z,38.90
2022-10-14T20:02:07.336Z,42.00
2022-10-14T20:07:15.249Z,40.30
2022-10-14T20:12:25.407Z,38.20
2022-10-14T20:17:35.757Z,40.50
2022-10-14T20:28:06.891Z,38.10
2022-10-14T20:33:10.954Z,36.80
2022-10-14T20:38:14.838Z,35.80
2022-10-14T20:43:18.748Z,31.50
2022-10-14T20:48:22.534Z,31.70
2022-10-14T20:53:26.851Z,35.60
2022-10-14T20:58:30.261Z,25.40
2022-10-14T21:03:33.858Z,31.90
2022-10-14T21:08:39.366Z,35.30
2022-10-14T21:13:48.141Z,32.10
2022-10-14T21:18:57.938Z,34.20
2022-10-14T21:24:01.478Z,31.00
2022-10-14T21:29:05.956Z,34.70
2022-10-14T21:34:11.104Z,33.50
2022-10-14T21:39:16.775Z,31.80
2022-10-14T21:44:21.850Z,31.10
2022-10-14T21:49:25.632Z,32.00
2022-10-14T21:54:29.803Z,33.20
2022-10-14T21:59:33.988Z,32.30
2022-10-14T22:04:38.650Z,34.30
2022-10-14T22:09:43.132Z,30.80
2022-10-14T22:14:47.426Z,31.80
2022-10-14T22:19:51.434Z,32.30
2022-10-14T22:24:55.334Z,29.00
2022-10-14T22:30:00.176Z,29.10
2022-10-14T22:35:03.595Z,34.80
2022-10-14T22:40:07.098Z,29.60
2022-10-14T22:45:10.908Z,33.60
2022-10-14T22:50:17.077Z,30.70
2022-10-14T22:55:20.863Z,33.10
2022-10-14T23:00:25.443Z,28.30
2022-10-14T23:05:28.763Z,28.50
2022-10-14T23:10:32.707Z,27.40
2022-10-14T23:15:38.546Z,31.30
2022-10-14T23:20:42.915Z,31.70
2022-10-14T23:25:46.692Z,28.60
2022-10-14T23:30:51.057Z,31.40
2022-10-14T23:35:56.132Z,33.60
2022-10-14T23:41:02.586Z,31.10
2022-10-14T23:46:10.693Z,31.70
2022-10-14T23:51:14.975Z,31.80
2022-10-14T23:56:19.845Z,26.90
